sensor_id;sensor_type;location;lat;lon;timestamp;temperature;humidity
37642;DHT22;23486;51.956;5.888;2023-07-09T00:02:23;24.10;98.80
37642;DHT22;23486;51.956;5.888;2023-07-09T00:04:50;24.10;99.00
37642;DHT22;23486;51.956;5.888;2023-07-09T00:07:27;24.10;99.10
37642;DHT22;23486;51.956;5.888;2023-07-09T00:09:53;24.10;99.30
37642;DHT22;23486;51.956;5.888;2023-07-09T00:12:20;24.00;99.50
37642;DHT22;23486;51.956;5.888;2023-07-09T00:14:45;24.00;99.90
37642;DHT22;23486;51.956;5.888;2023-07-09T00:17:18;24.00;99.90
37642;DHT22;23486;51.956;5.888;2023-07-09T00:19:45;23.90;99.90
37642;DHT22;23486;51.956;5.888;2023-07-09T00:22:18;23.90;99.90
37642;DHT22;23486;51.956;5.888;2023-07-09T00:24:49;23.90;99.90
37642;DHT22;23486;51.956;5.888;2023-07-09T00:27:18;23.90;99.90
37642;DHT22;23486;51.956;5.888;2023-07-09T00:29:53;23.90;99.90
37642;DHT22;23486;51.956;5.888;2023-07-09T00:32:19;23.80;99.90
37642;DHT22;23486;51.956;5.888;2023-07-09T00:34:51;23.70;99.90
37642;DHT22;23486;51.956;5.888;2023-07-09T00:37:19;23.60;99.90
37642;DHT22;23486;51.956;5.888;2023-07-09T00:39:48;23.60;99.90
37642;DHT22;23486;51.956;5.888;2023-07-09T00:42:21;23.60;99.90
37642;DHT22;23486;51.956;5.888;2023-07-09T00:44:56;23.70;99.90
37642;DHT22;23486;51.956;5.888;2023-07-09T00:53:08;23.60;99.90
37642;DHT22;23486;51.956;5.888;2023-07-09T00:55:38;23.50;99.90
37642;DHT22;23486;51.956;5.888;2023-07-09T00:58:12;23.50;99.90
37642;DHT22;23486;51.956;5.888;2023-07-09T01:00:47;23.50;99.90
37642;DHT22;23486;51.956;5.888;2023-07-09T01:03:45;23.40;99.90
37642;DHT22;23486;51.956;5.888;2023-07-09T01:06:12;23.40;99.90
37642;DHT22;23486;51.956;5.888;2023-07-09T01:08:39;23.30;99.90
37642;DHT22;23486;51.956;5.888;2023-07-09T01:11:18;23.30;99.90
37642;DHT22;23486;51.956;5.888;2023-07-09T01:13:52;23.30;99.90
37642;DHT22;23486;51.956;5.888;2023-07-09T01:16:23;23.30;99.90
37642;DHT22;23486;51.956;5.888;2023-07-09T01:18:52;23.30;99.90
37642;DHT22;23486;51.956;5.888;2023-07-09T01:21:18;23.20;99.90
37642;DHT22;23486;51.956;5.888;2023-07-09T01:23:45;23.20;99.90
37642;DHT22;23486;51.956;5.888;2023-07-09T01:26:13;23.20;99.90
37642;DHT22;23486;51.956;5.888;2023-07-09T01:28:39;23.20;99.90
37642;DHT22;23486;51.956;5.888;2023-07-09T01:31:07;23.10;99.90
37642;DHT22;23486;51.956;5.888;2023-07-09T01:33:33;23.10;99.90
37642;DHT22;23486;51.956;5.888;2023-07-09T01:35:59;23.10;99.90
37642;DHT22;23486;51.956;5.888;2023-07-09T01:38:28;23.10;99.90
37642;DHT22;23486;51.956;5.888;2023-07-09T01:40:56;23.00;99.90
37642;DHT22;23486;51.956;5.888;2023-07-09T01:43:23;23.00;99.90
37642;DHT22;23486;51.956;5.888;2023-07-09T01:45:50;23.00;99.90
37642;DHT22;23486;51.956;5.888;2023-07-09T01:48:17;23.00;99.90
37642;DHT22;23486;51.956;5.888;2023-07-09T01:50:43;23.00;99.90
37642;DHT22;23486;51.956;5.888;2023-07-09T01:53:13;22.90;99.90
37642;DHT22;23486;51.956;5.888;2023-07-09T01:55:40;22.90;99.90
37642;DHT22;23486;51.956;5.888;2023-07-09T01:58:05;22.80;99.90
37642;DHT22;23486;51.956;5.888;2023-07-09T02:00:33;22.80;99.90
37642;DHT22;23486;51.956;5.888;2023-07-09T02:03:05;22.70;99.90
37642;DHT22;23486;51.956;5.888;2023-07-09T02:05:32;22.70;99.90
37642;DHT22;23486;51.956;5.888;2023-07-09T02:07:58;22.70;99.90
37642;DHT22;23486;51.956;5.888;2023-07-09T02:10:26;22.60;99.90
37642;DHT22;23486;51.956;5.888;2023-07-09T02:12:51;22.60;99.90
37642;DHT22;23486;51.956;5.888;2023-07-09T02:15:17;22.50;99.90
37642;DHT22;23486;51.956;5.888;2023-07-09T02:17:43;22.40;99.90
37642;DHT22;23486;51.956;5.888;2023-07-09T02:20:15;22.40;99.90
37642;DHT22;23486;51.956;5.888;2023-07-09T02:22:41;22.40;99.90
37642;DHT22;23486;51.956;5.888;2023-07-09T02:25:08;22.40;99.90
37642;DHT22;23486;51.956;5.888;2023-07-09T02:27:35;22.30;99.90
37642;DHT22;23486;51.956;5.888;2023-07-09T02:30:01;22.30;99.90
37642;DHT22;23486;51.956;5.888;2023-07-09T02:32:28;22.20;99.90
37642;DHT22;23486;51.956;5.888;2023-07-09T02:34:54;22.30;99.90
37642;DHT22;23486;51.956;5.888;2023-07-09T02:37:22;22.30;99.90
37642;DHT22;23486;51.956;5.888;2023-07-09T02:39:48;22.30;99.90
37642;DHT22;23486;51.956;5.888;2023-07-09T02:42:17;22.20;99.90
37642;DHT22;23486;51.956;5.888;2023-07-09T02:44:44;22.10;99.90
37642;DHT22;23486;51.956;5.888;2023-07-09T02:47:11;22.10;99.90
37642;DHT22;23486;51.956;5.888;2023-07-09T02:49:38;22.10;99.90
37642;DHT22;23486;51.956;5.888;2023-07-09T02:52:04;22.00;99.90
37642;DHT22;23486;51.956;5.888;2023-07-09T02:54:30;22.00;99.90
37642;DHT22;23486;51.956;5.888;2023-07-09T02:56:55;22.00;99.90
37642;DHT22;23486;51.956;5.888;2023-07-09T02:59:21;21.90;99.90
37642;DHT22;23486;51.956;5.888;2023-07-09T03:01:49;21.90;99.90
37642;DHT22;23486;51.956;5.888;2023-07-09T03:04:15;21.90;99.90
37642;DHT22;23486;51.956;5.888;2023-07-09T03:06:40;21.80;99.90
37642;DHT22;23486;51.956;5.888;2023-07-09T03:09:06;21.80;99.90
37642;DHT22;23486;51.956;5.888;2023-07-09T03:11:34;21.80;99.90
37642;DHT22;23486;51.956;5.888;2023-07-09T03:14:00;21.80;99.90
37642;DHT22;23486;51.956;5.888;2023-07-09T03:16:28;21.70;99.90
37642;DHT22;23486;51.956;5.888;2023-07-09T03:18:54;21.80;99.90
37642;DHT22;23486;51.956;5.888;2023-07-09T03:21:23;21.80;99.90
37642;DHT22;23486;51.956;5.888;2023-07-09T03:23:50;21.70;99.90
37642;DHT22;23486;51.956;5.888;2023-07-09T03:26:16;21.70;99.90
37642;DHT22;23486;51.956;5.888;2023-07-09T03:28:41;21.70;99.90
37642;DHT22;23486;51.956;5.888;2023-07-09T03:31:07;21.60;99.90
37642;DHT22;23486;51.956;5.888;2023-07-09T03:33:33;21.60;99.90
37642;DHT22;23486;51.956;5.888;2023-07-09T03:35:59;21.60;99.90
37642;DHT22;23486;51.956;5.888;2023-07-09T03:38:25;21.60;99.90
37642;DHT22;23486;51.956;5.888;2023-07-09T03:40:54;21.60;99.90
37642;DHT22;23486;51.956;5.888;2023-07-09T03:43:21;21.60;99.90
37642;DHT22;23486;51.956;5.888;2023-07-09T03:45:47;21.60;99.90
37642;DHT22;23486;51.956;5.888;2023-07-09T03:48:13;21.60;99.90
37642;DHT22;23486;51.956;5.888;2023-07-09T03:50:41;21.60;99.90
37642;DHT22;23486;51.956;5.888;2023-07-09T03:53:06;21.60;99.90
37642;DHT22;23486;51.956;5.888;2023-07-09T03:55:32;21.70;99.90
37642;DHT22;23486;51.956;5.888;2023-07-09T03:58:01;21.60;99.90
37642;DHT22;23486;51.956;5.888;2023-07-09T04:00:30;21.70;99.90
37642;DHT22;23486;51.956;5.888;2023-07-09T04:02:56;21.70;99.90
37642;DHT22;23486;51.956;5.888;2023-07-09T04:05:23;21.80;99.90
37642;DHT22;23486;51.956;5.888;2023-07-09T04:07:48;21.80;99.90
37642;DHT22;23486;51.956;5.888;2023-07-09T04:10:14;21.90;99.90
37642;DHT22;23486;51.956;5.888;2023-07-09T04:12:40;21.90;99.90
37642;DHT22;23486;51.956;5.888;2023-07-09T04:15:06;21.90;99.90
37642;DHT22;23486;51.956;5.888;2023-07-09T04:17:32;21.90;99.90
37642;DHT22;23486;51.956;5.888;2023-07-09T04:19:58;22.00;99.90
37642;DHT22;23486;51.956;5.888;2023-07-09T04:22:23;22.00;99.90
37642;DHT22;23486;51.956;5.888;2023-07-09T04:24:49;22.00;99.90
37642;DHT22;23486;51.956;5.888;2023-07-09T04:27:15;22.00;99.90
37642;DHT22;23486;51.956;5.888;2023-07-09T04:29:41;22.00;99.90
37642;DHT22;23486;51.956;5.888;2023-07-09T04:32:16;22.00;99.90
37642;DHT22;23486;51.956;5.888;2023-07-09T04:34:44;22.00;99.90
37642;DHT22;23486;51.956;5.888;2023-07-09T04:37:10;22.10;99.90
37642;DHT22;23486;51.956;5.888;2023-07-09T04:39:42;22.10;99.90
37642;DHT22;23486;51.956;5.888;2023-07-09T04:42:11;22.10;99.90
37642;DHT22;23486;51.956;5.888;2023-07-09T04:44:37;22.20;99.90
37642;DHT22;23486;51.956;5.888;2023-07-09T04:47:03;22.20;99.90
37642;DHT22;23486;51.956;5.888;2023-07-09T04:49:29;22.20;99.90
37642;DHT22;23486;51.956;5.888;2023-07-09T04:51:54;22.30;99.90
37642;DHT22;23486;51.956;5.888;2023-07-09T04:54:22;22.30;99.90
37642;DHT22;23486;51.956;5.888;2023-07-09T04:56:48;22.30;99.90
37642;DHT22;23486;51.956;5.888;2023-07-09T04:59:14;22.30;99.90
37642;DHT22;23486;51.956;5.888;2023-07-09T05:01:41;22.40;99.90
37642;DHT22;23486;51.956;5.888;2023-07-09T05:04:06;22.50;99.90
37642;DHT22;23486;51.956;5.888;2023-07-09T05:06:33;22.50;99.90
37642;DHT22;23486;51.956;5.888;2023-07-09T05:08:58;22.50;99.90
37642;DHT22;23486;51.956;5.888;2023-07-09T05:11:24;22.60;99.90
37642;DHT22;23486;51.956;5.888;2023-07-09T05:13:50;22.60;99.90
37642;DHT22;23486;51.956;5.888;2023-07-09T05:16:15;22.60;99.90
37642;DHT22;23486;51.956;5.888;2023-07-09T05:18:42;22.70;99.90
37642;DHT22;23486;51.956;5.888;2023-07-09T05:21:08;22.70;99.90
37642;DHT22;23486;51.956;5.888;2023-07-09T05:23:33;22.80;99.90
37642;DHT22;23486;51.956;5.888;2023-07-09T05:26:00;22.80;99.90
37642;DHT22;23486;51.956;5.888;2023-07-09T05:28:28;22.90;99.90
37642;DHT22;23486;51.956;5.888;2023-07-09T05:30:54;23.00;99.90
37642;DHT22;23486;51.956;5.888;2023-07-09T05:33:19;23.10;99.90
37642;DHT22;23486;51.956;5.888;2023-07-09T05:35:45;23.10;99.90
37642;DHT22;23486;51.956;5.888;2023-07-09T05:38:14;23.20;99.90
37642;DHT22;23486;51.956;5.888;2023-07-09T05:40:41;23.30;99.90
37642;DHT22;23486;51.956;5.888;2023-07-09T05:43:07;23.30;99.90
37642;DHT22;23486;51.956;5.888;2023-07-09T05:45:35;23.40;99.90
37642;DHT22;23486;51.956;5.888;2023-07-09T05:48:01;23.50;99.90
37642;DHT22;23486;51.956;5.888;2023-07-09T05:50:28;23.60;99.90
37642;DHT22;23486;51.956;5.888;2023-07-09T05:52:54;23.60;99.90
37642;DHT22;23486;51.956;5.888;2023-07-09T05:55:19;23.70;99.90
37642;DHT22;23486;51.956;5.888;2023-07-09T05:57:45;23.80;99.90
37642;DHT22;23486;51.956;5.888;2023-07-09T06:00:11;23.80;99.90
37642;DHT22;23486;51.956;5.888;2023-07-09T06:02:37;23.80;99.90
37642;DHT22;23486;51.956;5.888;2023-07-09T06:05:04;23.90;99.90
37642;DHT22;23486;51.956;5.888;2023-07-09T06:07:29;23.90;99.90
37642;DHT22;23486;51.956;5.888;2023-07-09T06:09:55;23.80;99.90
37642;DHT22;23486;51.956;5.888;2023-07-09T06:12:21;23.90;99.90
37642;DHT22;23486;51.956;5.888;2023-07-09T06:14:46;24.00;99.90
37642;DHT22;23486;51.956;5.888;2023-07-09T06:17:12;24.00;99.90
37642;DHT22;23486;51.956;5.888;2023-07-09T06:19:38;24.10;99.90
37642;DHT22;23486;51.956;5.888;2023-07-09T06:22:04;24.10;99.90
37642;DHT22;23486;51.956;5.888;2023-07-09T06:24:30;24.20;99.90
37642;DHT22;23486;51.956;5.888;2023-07-09T06:26:56;24.30;99.90
37642;DHT22;23486;51.956;5.888;2023-07-09T06:29:25;24.30;99.90
37642;DHT22;23486;51.956;5.888;2023-07-09T06:31:50;24.40;99.90
37642;DHT22;23486;51.956;5.888;2023-07-09T06:34:16;24.50;99.90
37642;DHT22;23486;51.956;5.888;2023-07-09T06:36:41;24.60;99.90
37642;DHT22;23486;51.956;5.888;2023-07-09T06:39:07;24.70;99.90
37642;DHT22;23486;51.956;5.888;2023-07-09T06:41:33;24.70;99.90
37642;DHT22;23486;51.956;5.888;2023-07-09T06:44:05;24.80;99.90
37642;DHT22;23486;51.956;5.888;2023-07-09T06:46:31;24.90;99.90
37642;DHT22;23486;51.956;5.888;2023-07-09T06:48:56;24.90;99.90
37642;DHT22;23486;51.956;5.888;2023-07-09T06:51:22;25.00;99.90
37642;DHT22;23486;51.956;5.888;2023-07-09T06:53:47;25.00;99.90
37642;DHT22;23486;51.956;5.888;2023-07-09T06:56:16;25.10;99.90
37642;DHT22;23486;51.956;5.888;2023-07-09T06:58:41;25.10;99.90
37642;DHT22;23486;51.956;5.888;2023-07-09T07:01:07;25.10;99.90
37642;DHT22;23486;51.956;5.888;2023-07-09T07:03:36;25.10;99.90
37642;DHT22;23486;51.956;5.888;2023-07-09T07:06:02;25.20;99.90
37642;DHT22;23486;51.956;5.888;2023-07-09T07:08:28;25.20;99.90
37642;DHT22;23486;51.956;5.888;2023-07-09T07:10:57;25.30;99.90
37642;DHT22;23486;51.956;5.888;2023-07-09T07:13:31;25.40;99.90
37642;DHT22;23486;51.956;5.888;2023-07-09T07:15:56;25.40;99.90
37642;DHT22;23486;51.956;5.888;2023-07-09T07:18:25;25.50;99.90
37642;DHT22;23486;51.956;5.888;2023-07-09T07:21:09;25.50;99.90
37642;DHT22;23486;51.956;5.888;2023-07-09T07:23:34;25.60;99.90
37642;DHT22;23486;51.956;5.888;2023-07-09T07:26:00;25.60;99.90
37642;DHT22;23486;51.956;5.888;2023-07-09T07:28:26;25.70;99.90
37642;DHT22;23486;51.956;5.888;2023-07-09T07:31:01;25.80;99.90
37642;DHT22;23486;51.956;5.888;2023-07-09T07:33:27;25.90;99.90
37642;DHT22;23486;51.956;5.888;2023-07-09T07:35:53;25.90;99.90
37642;DHT22;23486;51.956;5.888;2023-07-09T07:38:18;26.00;99.90
37642;DHT22;23486;51.956;5.888;2023-07-09T07:40:44;26.10;99.90
37642;DHT22;23486;51.956;5.888;2023-07-09T07:43:10;26.10;99.90
37642;DHT22;23486;51.956;5.888;2023-07-09T07:45:36;26.20;99.90
37642;DHT22;23486;51.956;5.888;2023-07-09T07:48:05;26.20;99.90
37642;DHT22;23486;51.956;5.888;2023-07-09T07:50:31;26.20;99.90
37642;DHT22;23486;51.956;5.888;2023-07-09T07:52:57;26.30;99.90
37642;DHT22;23486;51.956;5.888;2023-07-09T07:55:22;26.30;99.90
37642;DHT22;23486;51.956;5.888;2023-07-09T07:57:48;26.40;99.90
37642;DHT22;23486;51.956;5.888;2023-07-09T08:00:14;26.50;99.90
37642;DHT22;23486;51.956;5.888;2023-07-09T08:02:40;26.60;99.90
37642;DHT22;23486;51.956;5.888;2023-07-09T08:05:06;26.60;99.90
37642;DHT22;23486;51.956;5.888;2023-07-09T08:07:31;26.70;99.90
37642;DHT22;23486;51.956;5.888;2023-07-09T08:09:57;26.80;99.90
37642;DHT22;23486;51.956;5.888;2023-07-09T08:12:23;26.80;99.90
37642;DHT22;23486;51.956;5.888;2023-07-09T08:14:48;26.90;99.90
37642;DHT22;23486;51.956;5.888;2023-07-09T08:17:15;26.90;99.90
37642;DHT22;23486;51.956;5.888;2023-07-09T08:19:48;27.00;99.90
37642;DHT22;23486;51.956;5.888;2023-07-09T08:22:15;27.10;99.90
37642;DHT22;23486;51.956;5.888;2023-07-09T08:24:41;27.10;99.90
37642;DHT22;23486;51.956;5.888;2023-07-09T08:27:07;27.20;99.90
37642;DHT22;23486;51.956;5.888;2023-07-09T08:29:33;27.30;99.90
37642;DHT22;23486;51.956;5.888;2023-07-09T08:31:59;27.40;99.90
37642;DHT22;23486;51.956;5.888;2023-07-09T08:34:24;27.40;99.90
37642;DHT22;23486;51.956;5.888;2023-07-09T08:36:56;27.50;99.90
37642;DHT22;23486;51.956;5.888;2023-07-09T08:39:21;27.60;99.90
37642;DHT22;23486;51.956;5.888;2023-07-09T08:41:56;27.70;99.90
37642;DHT22;23486;51.956;5.888;2023-07-09T08:47:42;27.90;99.90
37642;DHT22;23486;51.956;5.888;2023-07-09T08:50:16;28.00;99.90
37642;DHT22;23486;51.956;5.888;2023-07-09T08:52:44;28.10;99.90
37642;DHT22;23486;51.956;5.888;2023-07-09T08:55:16;28.10;99.90
37642;DHT22;23486;51.956;5.888;2023-07-09T08:57:52;28.20;99.90
37642;DHT22;23486;51.956;5.888;2023-07-09T09:00:29;28.20;99.90
37642;DHT22;23486;51.956;5.888;2023-07-09T09:03:01;28.30;99.90
37642;DHT22;23486;51.956;5.888;2023-07-09T09:05:33;28.40;99.90
37642;DHT22;23486;51.956;5.888;2023-07-09T09:08:12;28.40;99.90
37642;DHT22;23486;51.956;5.888;2023-07-09T09:10:48;28.50;99.80
37642;DHT22;23486;51.956;5.888;2023-07-09T09:13:16;28.50;99.50
37642;DHT22;23486;51.956;5.888;2023-07-09T09:15:44;28.60;99.40
37642;DHT22;23486;51.956;5.888;2023-07-09T09:18:24;28.70;99.10
37642;DHT22;23486;51.956;5.888;2023-07-09T09:21:03;28.80;99.20
37642;DHT22;23486;51.956;5.888;2023-07-09T09:23:45;28.90;99.00
37642;DHT22;23486;51.956;5.888;2023-07-09T09:26:33;28.90;98.80
37642;DHT22;23486;51.956;5.888;2023-07-09T09:29:00;29.00;98.60
37642;DHT22;23486;51.956;5.888;2023-07-09T09:31:29;29.10;98.60
37642;DHT22;23486;51.956;5.888;2023-07-09T09:33:55;29.10;98.40
37642;DHT22;23486;51.956;5.888;2023-07-09T09:36:23;29.20;98.30
37642;DHT22;23486;51.956;5.888;2023-07-09T09:38:50;29.20;98.00
37642;DHT22;23486;51.956;5.888;2023-07-09T09:41:23;29.30;97.80
37642;DHT22;23486;51.956;5.888;2023-07-09T09:43:52;29.40;97.60
37642;DHT22;23486;51.956;5.888;2023-07-09T09:46:21;29.40;97.60
37642;DHT22;23486;51.956;5.888;2023-07-09T09:48:49;29.60;97.50
37642;DHT22;23486;51.956;5.888;2023-07-09T09:51:17;29.60;97.00
37642;DHT22;23486;51.956;5.888;2023-07-09T09:53:51;29.70;96.60
37642;DHT22;23486;51.956;5.888;2023-07-09T09:56:20;29.80;96.50
37642;DHT22;23486;51.956;5.888;2023-07-09T09:58:53;29.90;96.30
37642;DHT22;23486;51.956;5.888;2023-07-09T10:01:21;30.00;96.20
37642;DHT22;23486;51.956;5.888;2023-07-09T10:03:54;30.00;96.20
37642;DHT22;23486;51.956;5.888;2023-07-09T10:14:30;30.40;95.00
37642;DHT22;23486;51.956;5.888;2023-07-09T10:23:00;30.60;94.20
37642;DHT22;23486;51.956;5.888;2023-07-09T10:31:41;30.90;93.40
37642;DHT22;23486;51.956;5.888;2023-07-09T10:37:04;31.00;92.10
37642;DHT22;23486;51.956;5.888;2023-07-09T10:39:40;31.10;91.70
37642;DHT22;23486;51.956;5.888;2023-07-09T10:42:14;31.10;91.70
37642;DHT22;23486;51.956;5.888;2023-07-09T10:44:47;31.20;92.20
37642;DHT22;23486;51.956;5.888;2023-07-09T10:49:50;31.40;92.00
37642;DHT22;23486;51.956;5.888;2023-07-09T10:52:39;31.40;91.70
37642;DHT22;23486;51.956;5.888;2023-07-09T10:55:46;31.50;91.70
37642;DHT22;23486;51.956;5.888;2023-07-09T10:58:43;31.60;91.20
37642;DHT22;23486;51.956;5.888;2023-07-09T11:01:13;31.60;91.00
37642;DHT22;23486;51.956;5.888;2023-07-09T11:03:44;31.70;90.90
37642;DHT22;23486;51.956;5.888;2023-07-09T11:06:37;31.80;90.70
37642;DHT22;23486;51.956;5.888;2023-07-09T11:09:20;32.00;90.10
37642;DHT22;23486;51.956;5.888;2023-07-09T11:11:50;32.10;89.50
37642;DHT22;23486;51.956;5.888;2023-07-09T11:14:31;32.10;89.20
37642;DHT22;23486;51.956;5.888;2023-07-09T11:16:58;32.20;88.80
37642;DHT22;23486;51.956;5.888;2023-07-09T11:19:26;32.30;88.60
37642;DHT22;23486;51.956;5.888;2023-07-09T11:22:15;32.40;87.30
37642;DHT22;23486;51.956;5.888;2023-07-09T11:25:11;32.50;86.70
37642;DHT22;23486;51.956;5.888;2023-07-09T11:27:54;32.50;86.50
37642;DHT22;23486;51.956;5.888;2023-07-09T11:30:26;32.60;85.50
37642;DHT22;23486;51.956;5.888;2023-07-09T11:32:54;32.70;85.60
37642;DHT22;23486;51.956;5.888;2023-07-09T11:35:27;32.80;85.00
37642;DHT22;23486;51.956;5.888;2023-07-09T11:37:54;32.90;84.50
37642;DHT22;23486;51.956;5.888;2023-07-09T11:40:20;33.10;84.40
37642;DHT22;23486;51.956;5.888;2023-07-09T11:42:52;33.20;81.90
37642;DHT22;23486;51.956;5.888;2023-07-09T11:45:33;33.20;81.00
37642;DHT22;23486;51.956;5.888;2023-07-09T11:50:51;33.40;79.80
37642;DHT22;23486;51.956;5.888;2023-07-09T11:53:33;33.40;80.10
37642;DHT22;23486;51.956;5.888;2023-07-09T11:55:59;33.50;80.00
37642;DHT22;23486;51.956;5.888;2023-07-09T11:58:25;33.60;80.20
37642;DHT22;23486;51.956;5.888;2023-07-09T12:00:54;33.70;80.40
37642;DHT22;23486;51.956;5.888;2023-07-09T12:03:34;33.80;80.10
37642;DHT22;23486;51.956;5.888;2023-07-09T12:06:07;33.90;80.40
37642;DHT22;23486;51.956;5.888;2023-07-09T12:08:40;33.90;79.80
37642;DHT22;23486;51.956;5.888;2023-07-09T12:11:16;34.10;79.10
37642;DHT22;23486;51.956;5.888;2023-07-09T12:13:43;34.10;78.70
37642;DHT22;23486;51.956;5.888;2023-07-09T12:16:28;34.10;78.10
37642;DHT22;23486;51.956;5.888;2023-07-09T12:18:54;34.20;78.00
37642;DHT22;23486;51.956;5.888;2023-07-09T12:21:20;34.20;77.90
37642;DHT22;23486;51.956;5.888;2023-07-09T12:23:47;34.30;77.50
37642;DHT22;23486;51.956;5.888;2023-07-09T12:26:16;34.30;77.30
37642;DHT22;23486;51.956;5.888;2023-07-09T12:28:42;34.20;76.70
37642;DHT22;23486;51.956;5.888;2023-07-09T12:31:15;34.10;76.90
37642;DHT22;23486;51.956;5.888;2023-07-09T12:33:52;33.90;77.20
37642;DHT22;23486;51.956;5.888;2023-07-09T12:36:18;33.80;77.50
37642;DHT22;23486;51.956;5.888;2023-07-09T12:39:04;33.60;77.70
37642;DHT22;23486;51.956;5.888;2023-07-09T12:41:44;33.40;77.30
37642;DHT22;23486;51.956;5.888;2023-07-09T12:44:21;33.30;77.80
37642;DHT22;23486;51.956;5.888;2023-07-09T12:46:48;33.20;77.70
37642;DHT22;23486;51.956;5.888;2023-07-09T12:49:25;33.10;77.60
37642;DHT22;23486;51.956;5.888;2023-07-09T12:51:53;33.10;77.60
37642;DHT22;23486;51.956;5.888;2023-07-09T12:54:20;33.20;77.50
37642;DHT22;23486;51.956;5.888;2023-07-09T12:56:53;33.30;76.70
37642;DHT22;23486;51.956;5.888;2023-07-09T12:59:27;33.40;75.30
37642;DHT22;23486;51.956;5.888;2023-07-09T13:02:20;33.50;74.50
37642;DHT22;23486;51.956;5.888;2023-07-09T13:04:49;33.70;73.50
37642;DHT22;23486;51.956;5.888;2023-07-09T13:07:37;33.90;72.80
37642;DHT22;23486;51.956;5.888;2023-07-09T13:10:19;34.00;72.30
37642;DHT22;23486;51.956;5.888;2023-07-09T13:12:49;34.20;71.80
37642;DHT22;23486;51.956;5.888;2023-07-09T13:17:49;34.40;69.80
37642;DHT22;23486;51.956;5.888;2023-07-09T13:20:14;34.50;68.80
37642;DHT22;23486;51.956;5.888;2023-07-09T13:22:42;34.60;68.30
37642;DHT22;23486;51.956;5.888;2023-07-09T13:25:09;34.70;68.00
37642;DHT22;23486;51.956;5.888;2023-07-09T13:27:35;34.50;68.60
37642;DHT22;23486;51.956;5.888;2023-07-09T13:30:04;34.50;69.40
37642;DHT22;23486;51.956;5.888;2023-07-09T13:32:30;34.40;69.90
37642;DHT22;23486;51.956;5.888;2023-07-09T13:34:55;34.20;70.20
37642;DHT22;23486;51.956;5.888;2023-07-09T13:37:21;34.10;70.50
37642;DHT22;23486;51.956;5.888;2023-07-09T13:39:47;34.00;70.50
37642;DHT22;23486;51.956;5.888;2023-07-09T13:42:15;33.90;70.80
37642;DHT22;23486;51.956;5.888;2023-07-09T13:44:43;33.90;71.30
37642;DHT22;23486;51.956;5.888;2023-07-09T13:47:18;33.90;71.50
37642;DHT22;23486;51.956;5.888;2023-07-09T13:49:45;33.80;71.20
37642;DHT22;23486;51.956;5.888;2023-07-09T13:52:20;33.60;71.30
37642;DHT22;23486;51.956;5.888;2023-07-09T13:54:46;33.40;71.50
37642;DHT22;23486;51.956;5.888;2023-07-09T13:57:17;33.30;72.00
37642;DHT22;23486;51.956;5.888;2023-07-09T13:59:43;33.20;72.40
37642;DHT22;23486;51.956;5.888;2023-07-09T14:02:30;33.00;73.20
37642;DHT22;23486;51.956;5.888;2023-07-09T14:05:00;32.80;74.40
37642;DHT22;23486;51.956;5.888;2023-07-09T14:07:34;32.50;75.80
37642;DHT22;23486;51.956;5.888;2023-07-09T14:10:02;32.20;77.10
37642;DHT22;23486;51.956;5.888;2023-07-09T14:12:29;31.90;78.40
37642;DHT22;23486;51.956;5.888;2023-07-09T14:15:00;31.60;78.50
37642;DHT22;23486;51.956;5.888;2023-07-09T14:17:26;31.20;78.30
37642;DHT22;23486;51.956;5.888;2023-07-09T14:19:52;30.80;78.50
37642;DHT22;23486;51.956;5.888;2023-07-09T14:22:26;30.50;79.00
37642;DHT22;23486;51.956;5.888;2023-07-09T14:24:53;30.30;79.80
37642;DHT22;23486;51.956;5.888;2023-07-09T14:27:18;30.00;79.80
37642;DHT22;23486;51.956;5.888;2023-07-09T14:29:44;29.80;80.50
37642;DHT22;23486;51.956;5.888;2023-07-09T14:32:33;29.60;81.30
37642;DHT22;23486;51.956;5.888;2023-07-09T14:35:00;29.30;80.90
37642;DHT22;23486;51.956;5.888;2023-07-09T14:37:26;29.00;81.60
37642;DHT22;23486;51.956;5.888;2023-07-09T14:39:52;28.80;81.90
37642;DHT22;23486;51.956;5.888;2023-07-09T14:42:18;28.70;81.80
37642;DHT22;23486;51.956;5.888;2023-07-09T14:44:44;28.50;80.60
37642;DHT22;23486;51.956;5.888;2023-07-09T14:47:18;28.40;80.60
37642;DHT22;23486;51.956;5.888;2023-07-09T14:49:44;28.30;80.70
37642;DHT22;23486;51.956;5.888;2023-07-09T14:52:18;28.20;81.10
37642;DHT22;23486;51.956;5.888;2023-07-09T14:54:45;28.10;81.80
37642;DHT22;23486;51.956;5.888;2023-07-09T14:57:20;28.10;82.30
37642;DHT22;23486;51.956;5.888;2023-07-09T14:59:47;28.00;83.50
37642;DHT22;23486;51.956;5.888;2023-07-09T15:02:33;27.70;86.50
37642;DHT22;23486;51.956;5.888;2023-07-09T15:05:03;27.00;88.90
37642;DHT22;23486;51.956;5.888;2023-07-09T15:07:29;26.60;90.60
37642;DHT22;23486;51.956;5.888;2023-07-09T15:09:59;26.20;91.20
37642;DHT22;23486;51.956;5.888;2023-07-09T15:12:32;25.80;93.40
37642;DHT22;23486;51.956;5.888;2023-07-09T15:15:13;25.20;95.10
37642;DHT22;23486;51.956;5.888;2023-07-09T15:17:40;24.70;97.10
37642;DHT22;23486;51.956;5.888;2023-07-09T15:20:13;24.40;99.50
37642;DHT22;23486;51.956;5.888;2023-07-09T15:22:39;24.20;99.90
37642;DHT22;23486;51.956;5.888;2023-07-09T15:25:15;24.00;99.90
37642;DHT22;23486;51.956;5.888;2023-07-09T15:27:42;23.90;99.90
37642;DHT22;23486;51.956;5.888;2023-07-09T15:30:22;23.80;99.90
37642;DHT22;23486;51.956;5.888;2023-07-09T15:32:49;23.80;99.90
37642;DHT22;23486;51.956;5.888;2023-07-09T15:35:16;23.90;99.90
37642;DHT22;23486;51.956;5.888;2023-07-09T15:37:42;23.90;99.90
37642;DHT22;23486;51.956;5.888;2023-07-09T15:40:28;23.80;99.90
37642;DHT22;23486;51.956;5.888;2023-07-09T15:43:05;23.80;99.90
37642;DHT22;23486;51.956;5.888;2023-07-09T15:45:31;23.70;99.90
37642;DHT22;23486;51.956;5.888;2023-07-09T15:47:56;23.60;99.90
37642;DHT22;23486;51.956;5.888;2023-07-09T15:50:25;23.40;99.90
37642;DHT22;23486;51.956;5.888;2023-07-09T15:52:52;23.10;99.90
37642;DHT22;23486;51.956;5.888;2023-07-09T15:55:26;23.20;99.90
37642;DHT22;23486;51.956;5.888;2023-07-09T15:57:53;23.40;99.90
37642;DHT22;23486;51.956;5.888;2023-07-09T16:00:23;23.60;99.90
37642;DHT22;23486;51.956;5.888;2023-07-09T16:02:51;23.70;99.90
37642;DHT22;23486;51.956;5.888;2023-07-09T16:05:18;23.60;99.90
37642;DHT22;23486;51.956;5.888;2023-07-09T16:07:44;23.40;99.90
37642;DHT22;23486;51.956;5.888;2023-07-09T16:10:10;23.30;99.90
37642;DHT22;23486;51.956;5.888;2023-07-09T16:12:35;23.10;99.90
37642;DHT22;23486;51.956;5.888;2023-07-09T16:15:01;23.10;99.90
37642;DHT22;23486;51.956;5.888;2023-07-09T16:17:27;23.00;99.90
37642;DHT22;23486;51.956;5.888;2023-07-09T16:19:55;23.00;99.90
37642;DHT22;23486;51.956;5.888;2023-07-09T16:22:21;22.90;99.90
37642;DHT22;23486;51.956;5.888;2023-07-09T16:24:48;22.90;99.90